createdAt,value
2022-11-21T00:00:53.524Z,1.73
2022-11-21T00:03:20.635Z,1.27
2022-11-21T00:05:49.514Z,2.13
2022-11-21T00:08:18.682Z,2.28
2022-11-21T00:10:46.306Z,1.17
2022-11-21T00:13:15.963Z,1.70
2022-11-21T00:15:43.929Z,2.55
2022-11-21T00:18:13.930Z,1.65
2022-11-21T00:20:41.746Z,1.80
2022-11-21T00:23:09.358Z,0.85
2022-11-21T00:25:36.922Z,1.42
2022-11-21T00:28:04.505Z,1.25
2022-11-21T00:30:31.580Z,2.00
2022-11-21T00:32:59.374Z,0.93
2022-11-21T00:35:26.348Z,1.38
2022-11-21T00:37:53.333Z,1.50
2022-11-21T00:40:20.233Z,2.53
2022-11-21T00:42:47.042Z,0.75
2022-11-21T00:45:13.866Z,1.00
2022-11-21T00:47:40.745Z,2.55
2022-11-21T00:50:07.829Z,1.77
2022-11-21T00:52:34.672Z,1.77
2022-11-21T00:55:01.606Z,1.85
2022-11-21T00:57:28.423Z,1.35
2022-11-21T01:00:01.366Z,1.70
2022-11-21T01:02:30.399Z,1.25
2022-11-21T01:05:01.751Z,2.17
2022-11-21T01:07:33.324Z,0.95
2022-11-21T01:10:02.598Z,1.25
2022-11-21T01:12:29.958Z,1.95
2022-11-21T01:15:03.250Z,3.45
2022-11-21T01:17:35.422Z,3.00
2022-11-21T01:22:35.150Z,1.35
2022-11-21T01:25:02.810Z,0.90
2022-11-21T01:27:30.217Z,2.50
2022-11-21T01:30:03.512Z,2.58
2022-11-21T01:32:36.909Z,1.38
2022-11-21T01:35:04.721Z,1.55
2022-11-21T01:37:35.049Z,2.17
2022-11-21T01:40:11.518Z,1.83
2022-11-21T01:43:06.515Z,1.48
2022-11-21T01:45:58.761Z,1.35
2022-11-21T01:48:56.734Z,1.38
2022-11-21T01:51:55.737Z,1.98
2022-11-21T01:54:36.909Z,2.00
2022-11-21T01:57:17.680Z,3.30
2022-11-21T01:59:49.747Z,1.02
2022-11-21T02:02:21.101Z,2.20
2022-11-21T02:04:55.003Z,2.13
2022-11-21T02:07:27.843Z,1.63
2022-11-21T02:10:06.205Z,1.63
2022-11-21T02:12:46.359Z,2.38
2022-11-21T02:15:14.021Z,1.85
2022-11-21T02:17:50.184Z,2.00
2022-11-21T02:20:30.171Z,2.40
2022-11-21T02:23:41.319Z,2.72
2022-11-21T02:26:09.391Z,2.38
2022-11-21T02:28:36.946Z,4.03
2022-11-21T02:31:10.036Z,4.75
2022-11-21T02:33:40.363Z,2.30
2022-11-21T02:36:33.316Z,3.30
2022-11-21T02:39:03.643Z,1.95
2022-11-21T02:41:35.607Z,1.80
2022-11-21T02:44:13.577Z,2.10
2022-11-21T02:46:52.232Z,3.45
2022-11-21T02:49:30.545Z,1.63
2022-11-21T02:52:00.357Z,2.75
2022-11-21T02:54:44.505Z,1.83
2022-11-21T02:57:14.933Z,3.92
2022-11-21T02:59:50.890Z,2.45
2022-11-21T03:02:18.249Z,2.45
2022-11-21T03:04:48.366Z,3.38
2022-11-21T03:07:23.850Z,1.65
2022-11-21T03:09:54.341Z,2.30
2022-11-21T03:12:25.686Z,2.38
2022-11-21T03:14:55.600Z,1.70
2022-11-21T03:17:22.960Z,2.08
2022-11-21T03:19:50.213Z,2.75
2022-11-21T03:22:32.161Z,3.05
2022-11-21T03:25:06.014Z,2.50
2022-11-21T03:27:33.471Z,2.63
2022-11-21T03:30:10.556Z,2.38
2022-11-21T03:32:45.800Z,3.25
2022-11-21T03:35:15.714Z,3.55
2022-11-21T03:37:45.939Z,1.58
2022-11-21T03:40:16.579Z,2.45
2022-11-21T03:42:46.688Z,1.23
2022-11-21T03:45:15.484Z,2.08
2022-11-21T03:47:51.740Z,3.25
2022-11-21T03:50:22.271Z,3.25
2022-11-21T03:52:51.150Z,1.77
2022-11-21T03:55:18.812Z,1.20
2022-11-21T03:57:46.076Z,4.22
2022-11-21T04:00:17.018Z,4.50
2022-11-21T04:02:47.548Z,3.17
2022-11-21T04:05:17.567Z,3.75
2022-11-21T04:07:47.010Z,4.43
2022-11-21T04:10:17.502Z,2.30
2022-11-21T04:12:48.845Z,4.13
2022-11-21T04:15:22.247Z,4.03
2022-11-21T04:17:59.326Z,3.20
2022-11-21T04:20:32.117Z,3.38
2022-11-21T04:22:59.468Z,3.55
2022-11-21T04:25:28.460Z,2.85
2022-11-21T04:28:16.293Z,3.63
2022-11-21T04:30:45.805Z,2.22
2022-11-21T04:33:17.560Z,5.05
2022-11-21T04:35:51.674Z,4.35
2022-11-21T04:38:18.927Z,2.72
2022-11-21T04:40:49.047Z,2.17
2022-11-21T04:43:16.402Z,6.40
2022-11-21T04:45:46.732Z,1.92
2022-11-21T04:48:18.029Z,2.22
2022-11-21T04:50:54.956Z,5.37
2022-11-21T04:53:31.117Z,2.58
2022-11-21T04:56:00.321Z,0.80
2022-11-21T04:58:27.665Z,3.42
2022-11-21T05:01:00.596Z,1.55
2022-11-21T05:03:27.913Z,2.88
2022-11-21T05:05:55.369Z,2.03
2022-11-21T05:08:29.375Z,0.68
2022-11-21T05:11:18.132Z,2.70
2022-11-21T05:13:49.897Z,3.08
2022-11-21T05:16:17.251Z,1.45
2022-11-21T05:18:47.682Z,2.03
2022-11-21T05:21:18.211Z,1.67
2022-11-21T05:23:52.738Z,1.20
2022-11-21T05:26:20.185Z,2.15
2022-11-21T05:28:48.923Z,1.70
2022-11-21T05:31:16.687Z,1.83
2022-11-21T05:33:44.097Z,0.73
2022-11-21T05:36:11.350Z,2.70
2022-11-21T05:38:50.481Z,3.08
2022-11-21T05:41:17.828Z,1.65
2022-11-21T05:43:48.468Z,1.58
2022-11-21T05:46:23.402Z,3.38
2022-11-21T05:48:54.238Z,1.75
2022-11-21T05:51:22.519Z,1.73
2022-11-21T05:53:49.874Z,1.45
2022-11-21T05:56:20.812Z,1.08
2022-11-21T05:58:48.065Z,3.10
2022-11-21T06:01:16.240Z,1.00
2022-11-21T06:03:47.687Z,3.00
2022-11-21T06:06:24.808Z,1.35
2022-11-21T06:08:54.896Z,3.50
2022-11-21T06:11:22.250Z,2.55
2022-11-21T06:13:52.779Z,2.22
2022-11-21T06:16:20.852Z,2.22
2022-11-21T06:18:58.653Z,3.53
2022-11-21T06:21:30.508Z,1.83
2022-11-21T06:24:00.837Z,3.20
2022-11-21T06:26:28.603Z,2.50
2022-11-21T06:28:58.416Z,4.28
2022-11-21T06:31:27.772Z,2.28
2022-11-21T06:33:57.224Z,1.05
2022-11-21T06:36:24.580Z,3.88
2022-11-21T06:39:00.945Z,3.38
2022-11-21T06:41:33.933Z,1.80
2022-11-21T06:44:02.006Z,2.58
2022-11-21T06:46:36.319Z,1.08
2022-11-21T06:49:09.413Z,1.02
2022-11-21T06:51:39.799Z,0.73
2022-11-21T06:54:06.992Z,3.53
2022-11-21T06:56:44.814Z,0.95
2022-11-21T06:59:22.900Z,1.08
2022-11-21T07:01:53.326Z,1.13
2022-11-21T07:04:20.887Z,0.68
2022-11-21T07:06:47.658Z,0.77
2022-11-21T07:12:21.822Z,1.38
2022-11-21T07:14:48.697Z,1.15
2022-11-21T07:17:15.960Z,1.55
2022-11-21T07:19:42.769Z,0.95
2022-11-21T07:22:09.677Z,0.47
2022-11-21T07:24:36.494Z,0.85
2022-11-21T07:27:03.302Z,0.77
2022-11-21T07:29:30.617Z,0.43
2022-11-21T07:31:57.642Z,1.50
2022-11-21T07:34:24.516Z,0.30
2022-11-21T07:36:51.294Z,0.22
2022-11-21T07:39:18.137Z,1.25
2022-11-21T07:41:44.921Z,1.27
2022-11-21T07:44:11.759Z,0.77
2022-11-21T07:46:38.555Z,1.55
2022-11-21T07:49:05.351Z,2.05
2022-11-21T07:51:32.981Z,2.20
2022-11-21T07:53:59.849Z,0.93
2022-11-21T07:56:26.769Z,1.45
2022-11-21T07:58:53.754Z,0.98
2022-11-21T08:01:21.390Z,3.05
2022-11-21T08:03:48.253Z,1.95
2022-11-21T08:06:15.289Z,1.17
2022-11-21T08:08:42.138Z,2.03
2022-11-21T08:11:08.981Z,0.28
2022-11-21T08:13:35.995Z,1.63
2022-11-21T08:16:04.529Z,1.73
2022-11-21T08:18:31.924Z,0.80
2022-11-21T08:21:02.473Z,0.73
2022-11-21T08:23:29.549Z,0.98
2022-11-21T08:25:56.411Z,1.05
2022-11-21T08:28:23.286Z,0.95
2022-11-21T08:30:50.083Z,1.55
2022-11-21T08:33:16.971Z,2.65
2022-11-21T08:35:43.792Z,2.97
2022-11-21T08:38:10.557Z,1.20
2022-11-21T08:40:37.372Z,0.85
2022-11-21T08:43:06.794Z,1.55
2022-11-21T08:45:35.448Z,3.42
2022-11-21T08:48:03.305Z,1.55
2022-11-21T08:50:30.183Z,1.70
2022-11-21T08:53:01.748Z,4.05
2022-11-21T08:55:29.286Z,0.65
2022-11-21T08:57:56.237Z,1.52
2022-11-21T09:00:23.537Z,3.17
2022-11-21T09:02:50.463Z,1.00
2022-11-21T09:05:17.314Z,2.05
2022-11-21T09:07:44.258Z,2.28
2022-11-21T09:10:11.433Z,3.97
2022-11-21T09:12:38.255Z,1.85
2022-11-21T09:15:24.602Z,1.10
2022-11-21T09:18:04.622Z,4.05
2022-11-21T09:20:34.350Z,2.75
2022-11-21T09:23:09.116Z,1.20
2022-11-21T09:25:36.411Z,1.98
2022-11-21T09:28:04.549Z,2.92
2022-11-21T09:30:31.405Z,2.20
2022-11-21T09:33:07.060Z,3.22
2022-11-21T09:35:34.324Z,2.67
2022-11-21T09:38:01.178Z,3.17
2022-11-21T09:40:30.500Z,3.42
2022-11-21T09:43:38.240Z,2.80
2022-11-21T09:46:13.447Z,3.00
2022-11-21T09:48:58.868Z,1.63
2022-11-21T09:51:27.255Z,4.15
2022-11-21T09:54:12.309Z,3.40
2022-11-21T09:56:41.680Z,3.58
2022-11-21T09:59:11.474Z,3.25
2022-11-21T10:01:38.904Z,2.78
2022-11-21T10:04:05.924Z,6.20
2022-11-21T10:06:42.879Z,2.10
2022-11-21T10:09:48.235Z,2.33
2022-11-21T10:12:40.055Z,2.35
2022-11-21T10:15:29.426Z,4.90
2022-11-21T10:18:09.107Z,1.98
2022-11-21T10:20:51.163Z,2.80
2022-11-21T10:23:31.779Z,1.55
2022-11-21T10:26:16.272Z,3.50
2022-11-21T10:29:13.860Z,1.58
2022-11-21T10:31:42.401Z,2.45
2022-11-21T10:34:27.003Z,2.75
2022-11-21T10:36:58.900Z,1.65
2022-11-21T10:40:03.291Z,4.15
2022-11-21T10:42:51.286Z,2.88
2022-11-21T10:45:19.189Z,2.25
2022-11-21T10:47:53.329Z,3.00
2022-11-21T10:50:35.962Z,3.17
2022-11-21T10:53:28.768Z,0.57
2022-11-21T10:56:19.089Z,2.03
2022-11-21T10:58:52.722Z,4.65
2022-11-21T11:01:22.779Z,2.58
2022-11-21T11:04:45.700Z,2.88
2022-11-21T11:07:24.580Z,2.25
2022-11-21T11:09:52.720Z,1.85
2022-11-21T11:12:51.370Z,4.70
2022-11-21T11:15:26.736Z,1.52
2022-11-21T11:17:57.043Z,4.55
2022-11-21T11:20:36.341Z,6.45
2022-11-21T11:23:17.723Z,5.18
2022-11-21T11:25:55.805Z,2.80
2022-11-21T11:28:26.294Z,7.43
2022-11-21T11:30:55.408Z,2.63
2022-11-21T11:33:38.725Z,1.48
2022-11-21T11:36:25.905Z,2.05
2022-11-21T11:38:58.825Z,8.55
2022-11-21T11:42:15.252Z,2.80
2022-11-21T11:45:29.781Z,2.45
2022-11-21T11:48:01.258Z,2.38
2022-11-21T11:50:51.207Z,2.78
2022-11-21T11:53:24.921Z,3.35
2022-11-21T11:56:00.159Z,3.50
2022-11-21T11:58:49.888Z,6.57
2022-11-21T12:01:35.248Z,3.42
2022-11-21T12:04:18.588Z,0.47
2022-11-21T12:09:35.563Z,3.03
2022-11-21T12:12:35.386Z,2.55
2022-11-21T12:15:42.812Z,1.88
2022-11-21T12:18:15.415Z,6.60
2022-11-21T12:20:57.564Z,1.20
2022-11-21T12:23:36.883Z,2.72
2022-11-21T12:26:28.346Z,5.47
2022-11-21T12:29:10.159Z,1.55
2022-11-21T12:31:51.907Z,4.88
2022-11-21T12:34:24.690Z,2.70
2022-11-21T12:37:16.541Z,0.98
2022-11-21T12:39:53.388Z,1.77
2022-11-21T12:42:53.159Z,2.15
2022-11-21T12:45:50.331Z,2.15
2022-11-21T12:49:00.728Z,5.90
2022-11-21T12:52:24.242Z,5.40
2022-11-21T12:55:09.669Z,2.85
2022-11-21T12:57:50.273Z,5.07
2022-11-21T13:00:48.407Z,2.58
2022-11-21T13:03:36.844Z,1.40
2022-11-21T13:06:06.811Z,2.60
2022-11-21T13:08:38.083Z,1.67
2022-11-21T13:11:38.860Z,1.98
2022-11-21T13:14:16.581Z,1.90
2022-11-21T13:17:01.948Z,2.90
2022-11-21T13:20:06.959Z,4.78
2022-11-21T13:22:36.815Z,3.67
2022-11-21T13:25:13.626Z,2.05
2022-11-21T13:27:44.845Z,1.98
2022-11-21T13:30:11.689Z,1.50
2022-11-21T13:32:53.000Z,3.50
2022-11-21T13:35:19.799Z,1.90
2022-11-21T13:37:49.717Z,3.10
2022-11-21T13:40:31.542Z,5.28
2022-11-21T13:43:35.971Z,3.47
2022-11-21T13:46:02.891Z,2.63
2022-11-21T13:48:38.828Z,4.45
2022-11-21T13:51:36.209Z,6.80
2022-11-21T13:54:21.009Z,2.05
2022-11-21T13:57:12.511Z,1.88
2022-11-21T14:00:22.293Z,2.43
2022-11-21T14:03:28.740Z,1.67
2022-11-21T14:06:28.208Z,2.40
2022-11-21T14:09:26.064Z,2.28
2022-11-21T14:12:08.297Z,4.65
2022-11-21T14:14:47.355Z,2.72
2022-11-21T14:17:32.182Z,4.50
2022-11-21T14:20:01.603Z,2.30
2022-11-21T14:22:45.211Z,2.63
2022-11-21T14:25:18.472Z,6.43
2022-11-21T14:27:51.921Z,5.82
2022-11-21T14:30:35.806Z,2.90
2022-11-21T14:33:21.404Z,2.42
2022-11-21T14:36:13.439Z,5.55
2022-11-21T14:39:28.997Z,4.68
2022-11-21T14:41:43.004Z,4.82
2022-11-21T14:44:09.812Z,6.82
2022-11-21T14:46:41.693Z,3.25
2022-11-21T14:49:17.324Z,2.17
2022-11-21T14:52:02.417Z,4.22
2022-11-21T14:55:06.774Z,3.15
2022-11-21T14:57:42.522Z,3.72
2022-11-21T15:00:29.872Z,3.10
2022-11-21T15:02:59.752Z,3.50
2022-11-21T15:05:54.965Z,4.05
2022-11-21T15:11:17.706Z,5.22
2022-11-21T15:16:36.573Z,4.78
2022-11-21T15:19:12.226Z,6.68
2022-11-21T15:21:46.465Z,6.55
2022-11-21T15:24:43.979Z,6.03
2022-11-21T15:27:27.352Z,10.07
2022-11-21T15:30:12.547Z,9.10
2022-11-21T15:33:02.148Z,8.07
2022-11-21T15:35:38.074Z,9.18
2022-11-21T15:38:20.555Z,7.90
2022-11-21T15:41:01.508Z,6.55
2022-11-21T15:43:40.725Z,8.65
2022-11-21T15:46:16.499Z,8.60
2022-11-21T15:48:48.219Z,9.05
2022-11-21T15:51:16.137Z,10.10
2022-11-21T15:53:43.291Z,10.23
2022-11-21T15:56:15.896Z,8.27
2022-11-21T15:58:48.694Z,6.00
2022-11-21T16:01:19.958Z,10.30
2022-11-21T16:03:49.821Z,8.18
2022-11-21T16:06:17.430Z,9.85
2022-11-21T16:08:44.229Z,9.82
2022-11-21T16:11:22.980Z,5.90
2022-11-21T16:13:53.726Z,8.30
2022-11-21T16:16:22.487Z,6.18
2022-11-21T16:18:49.673Z,6.72
2022-11-21T16:21:16.852Z,5.85
2022-11-21T16:23:43.900Z,7.22
2022-11-21T16:26:11.895Z,5.70
2022-11-21T16:28:38.880Z,11.63
2022-11-21T16:31:07.120Z,13.23
2022-11-21T16:33:35.093Z,12.50
2022-11-21T16:36:01.927Z,11.82
2022-11-21T16:38:29.719Z,10.80
2022-11-21T16:40:59.633Z,11.68
2022-11-21T16:43:29.165Z,10.63
2022-11-21T16:45:56.671Z,10.73
2022-11-21T16:48:24.226Z,14.48
2022-11-21T16:50:51.070Z,12.75
2022-11-21T16:53:17.907Z,12.07
2022-11-21T16:55:44.801Z,7.07
2022-11-21T16:58:11.647Z,8.85
2022-11-21T17:00:39.214Z,8.02
2022-11-21T17:03:06.090Z,6.93
2022-11-21T17:05:32.931Z,8.27
2022-11-21T17:07:59.699Z,6.93
2022-11-21T17:10:31.067Z,6.75
2022-11-21T17:13:00.555Z,9.60
2022-11-21T17:15:27.445Z,7.03
2022-11-21T17:17:54.640Z,9.45
2022-11-21T17:20:24.482Z,9.77
2022-11-21T17:22:51.299Z,7.22
2022-11-21T17:25:18.197Z,8.60
2022-11-21T17:27:44.987Z,8.52
2022-11-21T17:30:12.642Z,8.73
2022-11-21T17:32:39.441Z,9.32
2022-11-21T17:35:06.841Z,9.45
2022-11-21T17:37:34.027Z,7.32
2022-11-21T17:40:00.922Z,6.30
2022-11-21T17:42:28.418Z,6.55
2022-11-21T17:44:55.269Z,7.25
2022-11-21T17:47:22.238Z,6.70
2022-11-21T17:49:49.152Z,8.10
2022-11-21T17:52:15.929Z,9.35
2022-11-21T17:54:42.839Z,9.23
2022-11-21T17:57:09.692Z,7.57
2022-11-21T17:59:38.562Z,10.88
2022-11-21T18:02:05.461Z,5.78
2022-11-21T18:04:34.424Z,10.57
2022-11-21T18:07:01.833Z,6.65
2022-11-21T18:09:28.789Z,6.95
2022-11-21T18:11:55.741Z,6.40
2022-11-21T18:14:22.630Z,4.90
2022-11-21T18:16:53.133Z,6.88
2022-11-21T18:19:21.017Z,5.85
2022-11-21T18:21:48.600Z,7.53
2022-11-21T18:24:15.475Z,9.30
2022-11-21T18:26:42.447Z,6.35
2022-11-21T18:31:56.977Z,6.70
2022-11-21T18:34:23.775Z,9.18
2022-11-21T18:36:50.801Z,5.78
2022-11-21T18:39:17.627Z,6.65
2022-11-21T18:41:44.497Z,6.05
2022-11-21T18:44:17.064Z,9.15
2022-11-21T18:46:47.123Z,6.47
2022-11-21T18:49:14.274Z,8.55
2022-11-21T18:51:41.090Z,11.70
2022-11-21T18:54:09.667Z,8.35
2022-11-21T18:56:38.551Z,9.40
2022-11-21T18:59:06.650Z,7.13
2022-11-21T19:01:35.585Z,7.32
2022-11-21T19:04:02.604Z,8.00
2022-11-21T19:06:29.799Z,7.28
2022-11-21T19:08:58.436Z,5.43
2022-11-21T19:11:27.614Z,7.05
2022-11-21T19:13:56.032Z,6.07
2022-11-21T19:16:24.944Z,7.20
2022-11-21T19:21:41.885Z,4.53
2022-11-21T19:24:13.383Z,4.95
2022-11-21T19:26:41.382Z,5.20
2022-11-21T19:29:08.884Z,5.97
2022-11-21T19:31:40.716Z,4.95
2022-11-21T19:34:11.407Z,3.33
2022-11-21T19:36:39.558Z,5.70
2022-11-21T19:39:06.639Z,6.30
2022-11-21T19:41:33.606Z,5.82
2022-11-21T19:44:01.633Z,8.52
2022-11-21T19:46:31.362Z,6.80
2022-11-21T19:48:58.700Z,6.38
2022-11-21T19:51:33.775Z,6.10
2022-11-21T19:54:05.581Z,5.22
2022-11-21T19:56:33.283Z,4.22
2022-11-21T19:59:00.233Z,3.88
2022-11-21T20:01:29.643Z,5.78
2022-11-21T20:04:02.497Z,6.28
2022-11-21T20:06:31.080Z,6.03
2022-11-21T20:09:00.492Z,3.28
2022-11-21T20:11:29.517Z,6.30
2022-11-21T20:13:56.375Z,5.70
2022-11-21T20:16:28.792Z,7.45
2022-11-21T20:18:58.011Z,4.32
2022-11-21T20:21:25.579Z,4.78
2022-11-21T20:23:53.051Z,4.43
2022-11-21T20:26:21.277Z,4.72
2022-11-21T20:28:48.634Z,5.35
2022-11-21T20:31:18.793Z,3.88
2022-11-21T20:33:50.813Z,4.88
2022-11-21T20:36:22.451Z,6.35
2022-11-21T20:38:54.672Z,4.18
2022-11-21T20:46:35.845Z,9.27
2022-11-21T20:49:02.711Z,9.63
2022-11-21T20:54:16.342Z,3.88
2022-11-21T20:56:44.540Z,3.28
2022-11-21T20:59:11.876Z,2.53
2022-11-21T21:01:38.830Z,5.30
2022-11-21T21:04:05.673Z,6.72
2022-11-21T21:06:32.523Z,4.65
2022-11-21T21:08:59.441Z,3.22
2022-11-21T21:11:50.463Z,4.97
2022-11-21T21:14:13.041Z,4.18
2022-11-21T21:16:39.890Z,5.88
2022-11-21T21:19:06.662Z,6.68
2022-11-21T21:21:33.507Z,4.70
2022-11-21T21:24:05.523Z,3.75
2022-11-21T21:26:40.414Z,3.40
2022-11-21T21:29:14.138Z,4.07
2022-11-21T21:31:45.496Z,4.65
2022-11-21T21:34:17.163Z,6.50
2022-11-21T21:36:44.061Z,3.80
2022-11-21T21:39:11.036Z,5.78
2022-11-21T21:41:40.095Z,3.33
2022-11-21T21:44:07.417Z,6.75
2022-11-21T21:46:34.191Z,3.58
2022-11-21T21:49:01.174Z,5.18
2022-11-21T21:51:30.014Z,6.28
2022-11-21T21:53:58.994Z,5.88
2022-11-21T21:56:27.659Z,9.40
2022-11-21T21:58:55.815Z,6.22
2022-11-21T22:01:23.811Z,5.30
2022-11-21T22:03:56.078Z,4.75
2022-11-21T22:08:50.566Z,6.68
2022-11-21T22:11:26.163Z,4.50
2022-11-21T22:13:58.562Z,3.03
2022-11-21T22:16:25.891Z,4.38
2022-11-21T22:18:52.928Z,5.45
2022-11-21T22:21:23.782Z,5.57
2022-11-21T22:26:38.127Z,5.25
2022-11-21T22:29:05.266Z,5.03
2022-11-21T22:31:32.531Z,5.63
2022-11-21T22:33:59.488Z,5.10
2022-11-21T22:36:26.513Z,4.43
2022-11-21T22:38:54.813Z,4.47
2022-11-21T22:41:26.899Z,3.80
2022-11-21T22:43:58.643Z,4.63
2022-11-21T22:46:27.272Z,4.32
2022-11-21T22:48:54.644Z,4.65
2022-11-21T22:51:24.055Z,5.05
2022-11-21T22:53:51.519Z,4.10
2022-11-21T22:56:21.012Z,4.65
2022-11-21T22:58:48.535Z,7.03
2022-11-21T23:01:17.734Z,4.70
2022-11-21T23:03:45.742Z,6.63
2022-11-21T23:06:18.755Z,4.20
2022-11-21T23:08:46.590Z,5.63
2022-11-21T23:11:17.512Z,5.57
2022-11-21T23:13:46.242Z,5.50
2022-11-21T23:16:14.260Z,4.22
2022-11-21T23:18:41.144Z,4.47
2022-11-21T23:21:09.830Z,4.38
2022-11-21T23:23:36.763Z,3.42
2022-11-21T23:26:04.617Z,7.45
2022-11-21T23:28:31.985Z,7.53
2022-11-21T23:30:58.945Z,7.68
2022-11-21T23:33:25.742Z,4.93
2022-11-21T23:35:52.522Z,5.85
2022-11-21T23:38:20.077Z,5.55
2022-11-21T23:40:47.774Z,7.45
2022-11-21T23:43:15.563Z,4.78
2022-11-21T23:45:43.580Z,5.82
2022-11-21T23:48:10.410Z,6.07
2022-11-21T23:50:37.271Z,6.88
2022-11-21T23:53:04.149Z,5.93
2022-11-21T23:55:30.960Z,5.57
2022-11-21T23:57:57.791Z,6.80
